(°C)
17°
16°
16°
15°
14°
14°
14°
(°C)
15°
14°
13°
13°
12°
11°
10°
S
SSE
SSE
SE
SE
SE
SE
(km/h)
4-8
5-10
5-11
6-13
6-14
8-18
11-23
(mm)
0
0
0
0
0
1
2.3
(%)
20
30
44
58
73
90
95

Elevación del sol

/ -22.8°
sun-icon
UV 8
05:43
20:13
Gibosa menguante (213°)
23:39
07:36

METAR a Wilmington Manor (KILG)

Hora Condiciones Temperatura/
Punto de condensación
Viento Visibilidad Tiempo Nubes Presión Cambiar Bruto
VFR 17.2°C / 13.3°C 160º 7kt >10km - Broken Clouds 11000ft 1012 - KILG 190151Z 16007KT 10SM BKN110 17/13 A2991 RMK AO2 SLP126 T01720133
VFR 17.2°C / 12.2°C 160º 9kt >10km - Overcast 12000ft 1012 - KILG 190051Z 16009KT 10SM OVC120 17/12 A2989 RMK AO2 SLP121 T01720122
VFR 20°C / 7.8°C 180º 6kt >10km - Overcast 10000ft 1012 - KILG 182351Z 18006KT 10SM OVC100 20/08 A2989 RMK AO2 SLP121 T02000078 10228 20200 58021
VFR 20.6°C / 7.8°C 220º 4kt >10km - Broken Clouds 12000ft 1012 - KILG 182251Z 22004KT 10SM BKN120 21/08 A2991 RMK AO2 SLP128 T02060078
VFR 20.6°C / 7.2°C 240º 7kt >10km - Clear 1013 - KILG 182151Z 24007KT 10SM CLR 21/07 A2993 RMK AO2 SLP136 T02060072
VFR 22.2°C / 7.8°C variable 5kt >10km - Clear 1014 - KILG 182051Z VRB05KT 10SM CLR 22/08 A2995 RMK AO2 SLP142 T02220078 58016
VFR 22.2°C / 7.2°C 260º 10kt >10km. Runway 01: Visual range is variable from 853m up to more than 1829m. - Clear 1014 - KILG 181951Z 26010KT 10SM R01/2800VP6000FT CLR 22/07 A2997 RMK AO2 SLP147 T02220072
VFR 22.2°C / 5.6°C variable 3kt >10km - Clear 1015 - KILG 181851Z VRB03KT 10SM CLR 22/06 A2999 RMK AO2 SLP155 T02220056
VFR 21.1°C / 6.1°C variable 4kt >10km - Clear 1015 - KILG 181751Z VRB04KT 10SM CLR 21/06 A3000 RMK AO2 SLP158 T02110061 10222 20150 56020
VFR 21.1°C / 6.1°C >10km - Clear 1016 - KILG 181651Z 10SM CLR 21/06 A3001 RMK AO2 SLP163 T02110061
VFR 20°C / 6.7°C 300º 10kt >10km - Clear 1016 - KILG 181551Z 30010KT 10SM CLR 20/07 A3003 RMK AO2 SLP168 T02000067
VFR 18.9°C / 6.1°C 320º 10kt >10km - Clear 1017 - KILG 181451Z 32010KT 10SM CLR 19/06 A3006 RMK AO2 SLP178 T01890061 51004
VFR 17.8°C / 5.6°C 350º 7kt >10km - Clear 1017 - KILG 181351Z 35007KT 10SM CLR 18/06 A3006 RMK AO2 SLP177 T01780056
VFR 16.7°C / 6.1°C 300º 7kt >10km - Clear 1017 - KILG 181251Z 30007KT 10SM CLR 17/06 A3006 RMK AO2 SLP178 T01670061
VFR 15°C / 6.1°C 320º 8kt >10km - Clear 1017 - KILG 181151Z 32008KT 10SM CLR 15/06 A3004 RMK AO2 SLP173 T01500061 10150 20100 51015
VFR 12.8°C / 5.6°C 290º 5kt >10km - Clear 1017 - KILG 181051Z 29005KT 10SM CLR 13/06 A3004 RMK AO2 SLP171 T01280056
VFR 10°C / 4.4°C 310º 6kt >10km - Clear 1016 - KILG 180951Z AUTO 31006KT 10SM CLR 10/04 A3002 RMK AO2 SLP164 T01000044
VFR 11.1°C / 4.4°C 330º 5kt >10km - Clear 1015 - KILG 180851Z AUTO 33005KT 10SM CLR 11/04 A3000 RMK AO2 SLP158 T01110044 51013
VFR 11.7°C / 5°C 320º 4kt >10km - Clear 1015 - KILG 180751Z AUTO 32004KT 10SM CLR 12/05 A3000 RMK AO2 SLP157 T01170050
VFR 13.9°C / 4.4°C 290º 4kt >10km - Clear 1015 - KILG 180651Z AUTO 29004KT 10SM CLR 14/04 A2997 RMK AO2 SLP150 T01390044
VFR 15°C / 4.4°C variable 0kt >10km - Clear 1014 - KILG 180551Z AUTO 00000KT 10SM CLR 15/04 A2996 RMK AO2 SLP145 T01500044 10233 20144 51016
VFR 15.6°C / 5°C 20º 7kt >10km - Clear 1014 - KILG 180451Z AUTO 02007KT 10SM CLR 16/05 A2996 RMK AO2 SLP145 T01560050 402780128
VFR 16.7°C / 3.9°C 330º 7kt >10km - Clear 1013 - KILG 180351Z AUTO 33007KT 10SM CLR 17/04 A2994 RMK AO2 SLP137 T01670039
VFR 17.8°C / 4.4°C 310º 8kt >10km - Clear 1012 - KILG 180251Z AUTO 31008KT 10SM CLR 18/04 A2991 RMK AO2 SLP129 T01780044 51030

VFR

17.2°C / 13.3°C

[Más]
Viento 160º 7kt
Visibilidad >10km
Tiempo -
Nubes Broken Clouds 11000ft
Presión 1012
Cambiar -
Bruto KILG 190151Z 16007KT 10SM BKN110 17/13 A2991 RMK AO2 SLP126 T01720133

VFR

17.2°C / 12.2°C

[Más]
Viento 160º 9kt
Visibilidad >10km
Tiempo -
Nubes Overcast 12000ft
Presión 1012
Cambiar -
Bruto KILG 190051Z 16009KT 10SM OVC120 17/12 A2989 RMK AO2 SLP121 T01720122

VFR

20°C / 7.8°C

[Más]
Viento 180º 6kt
Visibilidad >10km
Tiempo -
Nubes Overcast 10000ft
Presión 1012
Cambiar -
Bruto KILG 182351Z 18006KT 10SM OVC100 20/08 A2989 RMK AO2 SLP121 T02000078 10228 20200 58021

VFR

20.6°C / 7.8°C

[Más]
Viento 220º 4kt
Visibilidad >10km
Tiempo -
Nubes Broken Clouds 12000ft
Presión 1012
Cambiar -
Bruto KILG 182251Z 22004KT 10SM BKN120 21/08 A2991 RMK AO2 SLP128 T02060078

VFR

20.6°C / 7.2°C

[Más]
Viento 240º 7kt
Visibilidad >10km
Tiempo -
Nubes Clear
Presión 1013
Cambiar -
Bruto KILG 182151Z 24007KT 10SM CLR 21/07 A2993 RMK AO2 SLP136 T02060072

VFR

22.2°C / 7.8°C

[Más]
Viento variable 5kt
Visibilidad >10km
Tiempo -
Nubes Clear
Presión 1014
Cambiar -
Bruto KILG 182051Z VRB05KT 10SM CLR 22/08 A2995 RMK AO2 SLP142 T02220078 58016

VFR

22.2°C / 7.2°C

[Más]
Viento 260º 10kt
Visibilidad >10km. Runway 01: Visual range is variable from 853m up to more than 1829m.
Tiempo -
Nubes Clear
Presión 1014
Cambiar -
Bruto KILG 181951Z 26010KT 10SM R01/2800VP6000FT CLR 22/07 A2997 RMK AO2 SLP147 T02220072

VFR

22.2°C / 5.6°C

[Más]
Viento variable 3kt
Visibilidad >10km
Tiempo -
Nubes Clear
Presión 1015
Cambiar -
Bruto KILG 181851Z VRB03KT 10SM CLR 22/06 A2999 RMK AO2 SLP155 T02220056

VFR

21.1°C / 6.1°C

[Más]
Viento variable 4kt
Visibilidad >10km
Tiempo -
Nubes Clear
Presión 1015
Cambiar -
Bruto KILG 181751Z VRB04KT 10SM CLR 21/06 A3000 RMK AO2 SLP158 T02110061 10222 20150 56020

VFR

21.1°C / 6.1°C

[Más]
Viento
Visibilidad >10km
Tiempo -
Nubes Clear
Presión 1016
Cambiar -
Bruto KILG 181651Z 10SM CLR 21/06 A3001 RMK AO2 SLP163 T02110061

VFR

20°C / 6.7°C

[Más]
Viento 300º 10kt
Visibilidad >10km
Tiempo -
Nubes Clear
Presión 1016
Cambiar -
Bruto KILG 181551Z 30010KT 10SM CLR 20/07 A3003 RMK AO2 SLP168 T02000067

VFR

18.9°C / 6.1°C

[Más]
Viento 320º 10kt
Visibilidad >10km
Tiempo -
Nubes Clear
Presión 1017
Cambiar -
Bruto KILG 181451Z 32010KT 10SM CLR 19/06 A3006 RMK AO2 SLP178 T01890061 51004

VFR

17.8°C / 5.6°C

[Más]
Viento 350º 7kt
Visibilidad >10km
Tiempo -
Nubes Clear
Presión 1017
Cambiar -
Bruto KILG 181351Z 35007KT 10SM CLR 18/06 A3006 RMK AO2 SLP177 T01780056

VFR

16.7°C / 6.1°C

[Más]
Viento 300º 7kt
Visibilidad >10km
Tiempo -
Nubes Clear
Presión 1017
Cambiar -
Bruto KILG 181251Z 30007KT 10SM CLR 17/06 A3006 RMK AO2 SLP178 T01670061

VFR

15°C / 6.1°C

[Más]
Viento 320º 8kt
Visibilidad >10km
Tiempo -
Nubes Clear
Presión 1017
Cambiar -
Bruto KILG 181151Z 32008KT 10SM CLR 15/06 A3004 RMK AO2 SLP173 T01500061 10150 20100 51015

VFR

12.8°C / 5.6°C

[Más]
Viento 290º 5kt
Visibilidad >10km
Tiempo -
Nubes Clear
Presión 1017
Cambiar -
Bruto KILG 181051Z 29005KT 10SM CLR 13/06 A3004 RMK AO2 SLP171 T01280056

VFR

10°C / 4.4°C

[Más]
Viento 310º 6kt
Visibilidad >10km
Tiempo -
Nubes Clear
Presión 1016
Cambiar -
Bruto KILG 180951Z AUTO 31006KT 10SM CLR 10/04 A3002 RMK AO2 SLP164 T01000044

VFR

11.1°C / 4.4°C

[Más]
Viento 330º 5kt
Visibilidad >10km
Tiempo -
Nubes Clear
Presión 1015
Cambiar -
Bruto KILG 180851Z AUTO 33005KT 10SM CLR 11/04 A3000 RMK AO2 SLP158 T01110044 51013

VFR

11.7°C / 5°C

[Más]
Viento 320º 4kt
Visibilidad >10km
Tiempo -
Nubes Clear
Presión 1015
Cambiar -
Bruto KILG 180751Z AUTO 32004KT 10SM CLR 12/05 A3000 RMK AO2 SLP157 T01170050

VFR

13.9°C / 4.4°C

[Más]
Viento 290º 4kt
Visibilidad >10km
Tiempo -
Nubes Clear
Presión 1015
Cambiar -
Bruto KILG 180651Z AUTO 29004KT 10SM CLR 14/04 A2997 RMK AO2 SLP150 T01390044

VFR

15°C / 4.4°C

[Más]
Viento variable 0kt
Visibilidad >10km
Tiempo -
Nubes Clear
Presión 1014
Cambiar -
Bruto KILG 180551Z AUTO 00000KT 10SM CLR 15/04 A2996 RMK AO2 SLP145 T01500044 10233 20144 51016

VFR

15.6°C / 5°C

[Más]
Viento 20º 7kt
Visibilidad >10km
Tiempo -
Nubes Clear
Presión 1014
Cambiar -
Bruto KILG 180451Z AUTO 02007KT 10SM CLR 16/05 A2996 RMK AO2 SLP145 T01560050 402780128

VFR

16.7°C / 3.9°C

[Más]
Viento 330º 7kt
Visibilidad >10km
Tiempo -
Nubes Clear
Presión 1013
Cambiar -
Bruto KILG 180351Z AUTO 33007KT 10SM CLR 17/04 A2994 RMK AO2 SLP137 T01670039

VFR

17.8°C / 4.4°C

[Más]
Viento 310º 8kt
Visibilidad >10km
Tiempo -
Nubes Clear
Presión 1012
Cambiar -
Bruto KILG 180251Z AUTO 31008KT 10SM CLR 18/04 A2991 RMK AO2 SLP129 T01780044 51030

TAF a Wilmington Manor (KILG)

From till


From till Wind 240º 5kt. Visibility 10km or more. Overcast 10000ft.
From till Wind variable 3kt. Visibility 10km or more. Overcast 5000ft.
Temporarly from till Visibility 9700m. Light Rain Mist . Overcast 3500ft.
From till Wind 130º 5kt. Visibility 6400m. Rain Mist . Overcast 2000ft.
From till Wind 130º 8kt. Visibility 3200m. Heavy Rain Mist . Overcast 1000ft.
From till Wind 160º 10kt. Visibility 9700m. Light Showers Rain Mist . Overcast 1000ft.
From till Wind 240º 5kt. Visibility 10km or more. Broken Clouds 2500ft.
From till Wind 290º 8kt. Visibility 10km or more. Broken Clouds 3500ft.

Bruto: KILG 182320Z 1900/1924 24005KT P6SM OVC100 FM190200 VRB03KT P6SM OVC050 TEMPO 1904/1906 6SM -RA BR OVC035 FM190600 13005KT 4SM RA BR OVC020 FM190700 13008KT 2SM +RA BR OVC010 FM191000 16010KT 6SM -SHRA BR OVC010 FM191300 24005KT P6SM BKN025 FM191500 29008KT P6SM BKN035 FM191800 28012KT P6SM SCT040

Radar y precipitación nowcast para Wilmington Manor

llovizna
Leve
Moderado
Fuerte
Muy fuerte
Granizo

El marcador del lugar se coloca en Wilmington Manor. Esta animación muestra el radar de precipitaciones hasta la última hora, así como 1h de previsión. Las lloviznas o las nevadas ligeras pueden ser invisibles para el radar. La intensidad de la precipitación está codificada por colores, que van del azul claro al naranja.

Imágenes actuales de satélite para Wilmington Manor, Estados Unidos

El marcador del lugar se coloca en Wilmington Manor. [Más]

La imagen de satélite en tiempo real se aprovecha de la combinación de bandas de la luz visible y de la luz infrarroja. Cómo se pueden detectar cambios de temperaturas a través de la banda infrarrojo, la imagen no aparece oscura de noche. No obstante, la niebla y las nubes bajas son apenas visibles en las imágenes de infrarrojo ya que las diferencias de temperaturas entre el suelo y la niebla son muy pequeñas, por eso, son casi invisibles durante la noche. Las imágenes de satélite del Meteosat (Europa) son actualizados en tiempo real cada 5 minutos. Las imágenes del GOES-16/GOES-17 (América del Norte y América del Sur) y Himawari (Asia) son actualizadas cada 10 minutos.

Volver al principio